Ana Sayfa
METAR-TAF:

METAR-TAF

Havaalanları :

Great Bend Municipal Airport

Great Bend, Kansas, Amerika Birleşik Devletleri

Enlem: 38-21N, Boylam: 098-52W, yükseklik: 575 m

Güncel hava durumu gözlemi

Rapor saat 04:56 UTC de 31 dakika önce yapıldı.
Sakin rüzgar
Sıcaklık
Basınç 1012 hPa
Görüş mesafesi: 16.1 km
Açık gökyüzü

METAR: KGBD 270456Z AUTO 00000KT 10SM CLR A2987 RMK AO2 SLPNO FZRANO $

Saat: 00:27 (05:27 UTC)

Tahmin

Rapor saat 23:26 UTC de 6 saat ve 1 dakika önce yapıldı.
Ayın 27'si saat 00 UTC'den ayın 27'si saat 24 UTC'ye kadar geçerli Tahmin
Rüzgar kuzey/kuzeybatıdan 8 kt
Görüş mesafesi: 10 km
Açık gökyüzü

TAF: KGBD 262326Z 2700/2724 33008KT P6SM SKC

4.000'den fazla havaalanı için hava durumu gözlemleri ve tahminleri (METAR ve TAF raporları).

Kullanılabilir istasyonlar harita üzerinde sarı ve kırmızı noktalarla gösterilir.

İstasyonun adını görmek için fareyi noktanın üzerinde gezdirin.

Sonrasında hava gözlem ve tahminlerini görmek için tıklayın.

Haritayı değiştirmek için: yaklaştırmak için siyah artı işaretli yeşil düğmeye ve uzaklaştırmak için de eksi işaretli düğmeye hızla tıklayın; bitişik haritalar için yeşil okları kullanın.


METAR-TAF: